This is the latest recevied weather packets stored in our database for station/object OK4ZAW-16. If no packets are shown the sender has not sent any weather packets the latest 1 day(s).
| Time | Temp. | Humidity | Pressure | Rain* | Wind** | Luminosity | Snow |
|---|---|---|---|---|---|---|---|
| 1777993463 | 19.44° C | 55% | 1009.4 hPa | - | 1.34 m/s, 0° | 150 W/m² | - |
| 1777993046 | 20° C | 52% | 1009.5 hPa | - | 1.34 m/s, 0° | 150 W/m² | - |
| 1777992627 | 21.11° C | 50% | 1009.5 hPa | - | 1.34 m/s, 0° | 150 W/m² | - |
| 1777992209 | 21.67° C | 48% | 1009.5 hPa | - | 1.34 m/s, 0° | 150 W/m² | - |
| 1777991791 | 21.67° C | 50% | 1009.6 hPa | - | 0.89 m/s, 0° | 150 W/m² | - |
| 1777991372 | 22.22° C | 48% | 1009.6 hPa | - | 1.34 m/s, 0° | 150 W/m² | - |
| 1777990954 | 22.78° C | 47% | 1009.7 hPa | - | 0.89 m/s, 0° | 150 W/m² | - |
| 1777990536 | 22.22° C | 49% | 1009.7 hPa | - | 0.89 m/s, 0° | 150 W/m² | - |
| 1777990118 | 22.22° C | 50% | 1009.8 hPa | - | 0.89 m/s, 0° | 150 W/m² | - |
| 1777989700 | 21.67° C | 54% | 1009.9 hPa | - | 1.34 m/s, 0° | 150 W/m² | - |
| 1777989282 | 21.67° C | 55% | 1010 hPa | - | 0.89 m/s, 0° | 150 W/m² | - |
| 1777988864 | 21.11° C | 58% | 1010.1 hPa | - | 1.34 m/s, 0° | 150 W/m² | - |
| 1777988446 | 20.56° C | 60% | 1010.1 hPa | - | 0.89 m/s, 0° | 150 W/m² | - |
| 1777988029 | 20.56° C | 63% | 1010.1 hPa | - | 0.89 m/s, 0° | 150 W/m² | - |
| 1777987611 | 19.44° C | 67% | 1010.2 hPa | - | 0.89 m/s, 0° | 150 W/m² | - |
| 1777987193 | 18.89° C | 67% | 1010.2 hPa | - | 1.34 m/s, 0° | 150 W/m² | - |
| 1777986776 | 18.89° C | 68% | 1010.2 hPa | - | 1.34 m/s, 0° | 150 W/m² | - |
| 1777986358 | 18.89° C | 67% | 1010.3 hPa | - | 0.89 m/s, 0° | 150 W/m² | - |
| 1777985940 | 18.89° C | 68% | 1010.4 hPa | - | 0.89 m/s, 0° | 150 W/m² | - |
| 1777985522 | 18.89° C | 67% | 1010.4 hPa | - | 0.89 m/s, 0° | 150 W/m² | - |
| 1777985105 | 18.33° C | 69% | 1010.4 hPa | - | 0.89 m/s, 0° | 150 W/m² | - |
| 1777984687 | 18.33° C | 67% | 1010.6 hPa | - | 1.34 m/s, 0° | 150 W/m² | - |
| 1777984269 | 18.33° C | 68% | 1010.5 hPa | - | 1.34 m/s, 0° | 150 W/m² | - |
| 1777983852 | 18.33° C | 71% | 1010.6 hPa | - | 1.34 m/s, 0° | 150 W/m² | - |
| 1777983434 | 18.33° C | 71% | 1010.5 hPa | - | 0.89 m/s, 0° | 150 W/m² | - |
* Rain since midnight (hover to see other rain measurements)
** Current wind speed in m/s (hover to see current wind gust speed)